• Join FlightAware (Why Join?)
  • Login
  • US Flag 
05:49PM EDT


 

Airport Tracker/Info


-or-


 

Live Flight TrackerFlight Track Log ✈ N607PA ✈ 26-Mar-2014 ✈ KDAB - KFPR

Flight Track Log - Related Links

Times and Time Zones

All times are in EDT time to prevent confusion due to time zone crossing. See the N607PA flight status page for this flight to view local times or setup timezone preferences in your user account.

Time Position Orientation Groundspeed Altitude Reporting Facility
EDT Latitude Longitude Course Direction KTS MPH feet Rate Location/Type
08:03PM 29.2028 -81.0156 124° Southeast 96 110 1,900  Level Jacksonville Center
08:04PM 29.1878 -80.9897 124° Southeast 116 133 2,900 1,020 Climbing Jacksonville Center
08:05PM 29.1561 -80.9783 163° South 113 130 4,000 1,080 Climbing Jacksonville Center
08:06PM 29.1269 -80.9694 165° South 115 132 5,000 780 Climbing Jacksonville Center
08:07PM 29.0911 -80.9536 159° South 155 178 5,600 120 Climbing Jacksonville Center
08:09PM 29.0000 -80.9500 178° South 171 197 5,500 -60 Descending Orlando TRACON
08:10PM 28.9500 -80.9333 164° South 171 197 5,500  Level Orlando TRACON
08:11PM 28.9000 -80.9333 180° South 174 200 5,500  Level Orlando TRACON
08:12PM 28.8500 -80.9167 164° South 171 197 5,500  Level Orlando TRACON
08:13PM 28.8000 -80.9000 164° South 172 198 5,600  Climbing Orlando TRACON
08:14PM 28.7667 -80.8667 139° Southeast 176 203 5,500 -60 Descending Orlando TRACON
08:15PM 28.7167 -80.8500 164° South 173 199 5,500  Level Orlando TRACON
08:16PM 28.6667 -80.8333 164° South 173 199 5,500  Level Orlando TRACON
08:17PM 28.6167 -80.8167 164° South 174 200 5,500 -60 Level Orlando TRACON
08:18PM 28.5833 -80.8000 156° South 175 201 5,400  Descending Orlando TRACON
08:19PM 28.5333 -80.7833 164° South 175 201 5,500  Climbing Orlando TRACON
08:20PM 28.4833 -80.7667 164° South 179 206 5,500 -60 Level Orlando TRACON
08:21PM 28.4333 -80.7500 164° South 177 204 5,400  Descending Orlando TRACON
08:22PM 28.3833 -80.7333 164° South 177 204 5,500  Climbing Orlando TRACON
08:23PM 28.3333 -80.7167 164° South 177 204 5,400  Descending Orlando TRACON
08:24PM 28.3000 -80.7000 156° South 179 206 5,500  Climbing Orlando TRACON
08:25PM 28.2500 -80.6833 164° South 177 204 5,500  Level Orlando TRACON
08:26PM 28.2000 -80.6667 164° South 176 203 5,500  Level Orlando TRACON
08:27PM 28.1500 -80.6333 150° Southeast 177 204 5,500  Level Orlando TRACON
08:28PM 28.1167 -80.6167 156° South 179 206 5,500 -120 Level Orlando TRACON
08:29PM 28.0617 -80.6119 176° South 188 216 5,300  Descending Miami Center
08:30PM 28.0078 -80.5983 167° South 176 203 5,500  Climbing Miami Center
08:31PM 27.9600 -80.5897 171° South 176 203 5,400  Descending Miami Center
08:32PM 27.9144 -80.5719 161° South 181 208 5,500  Climbing Miami Center
08:33PM 27.8775 -80.5472 149° Southeast 181 208 5,400  Descending Miami Center
08:34PM 27.8283 -80.5197 154° Southeast 181 208 5,500 -60 Climbing Miami Center
08:57PM 27.6122 -80.4731 336° Northwest 123 142 4,500 -60 Descending Miami Center
08:58PM 27.6536 -80.4883 342° North 140 161 4,500  Level Miami Center
08:59PM 27.6953 -80.4944 353° North 156 180 4,500  Level Miami Center
09:00PM 27.7428 -80.5169 337° Northwest 163 188 4,500  Level Miami Center
09:02PM 27.8253 -80.5478 342° North 163 188 4,500  Level Miami Center
09:04PM 27.9000 -80.5833 337° Northwest 161 185 4,600 60 Climbing Orlando TRACON
09:05PM 27.9500 -80.6000 344° North 160 184 4,700  Climbing Orlando TRACON
09:06PM 27.9833 -80.6167 336° Northwest 165 190 4,600 -60 Descending Orlando TRACON
09:07PM 28.0333 -80.6333 344° North 160 184 4,600 -60 Level Orlando TRACON
09:08PM 28.0667 -80.6333 360° North 162 186 4,500  Descending Orlando TRACON
09:09PM 28.1167 -80.6500 344° North 161 185 4,600  Climbing Orlando TRACON
09:10PM 28.1667 -80.6667 344° North 161 185 4,500 -60 Descending Orlando TRACON
09:11PM 28.2000 -80.6833 336° Northwest 163 188 4,500 60 Level Orlando TRACON
09:12PM 28.2500 -80.7000 344° North 162 186 4,700  Climbing Orlando TRACON
09:13PM 28.2833 -80.7167 336° Northwest 165 190 4,600 -60 Descending Orlando TRACON
09:14PM 28.3333 -80.7333 344° North 159 183 4,600  Level Orlando TRACON
09:15PM 28.3833 -80.7500 344° North 164 189 4,600  Level Orlando TRACON
09:16PM 28.4167 -80.7667 336° Northwest 163 188 4,600  Level Orlando TRACON
09:17PM 28.4667 -80.7833 344° North 163 188 4,600  Level Orlando TRACON
09:18PM 28.5167 -80.8000 344° North 156 180 4,700 -60 Climbing Orlando TRACON
09:20PM 28.5667 -80.8167 344° North 164 189 4,500 -60 Descending Orlando TRACON
09:20PM 28.5833 -80.8333 319° Northwest 160 184 4,600 60 Climbing Orlando TRACON
09:21PM 28.6167 -80.8500 336° Northwest 160 184 4,600  Level Orlando TRACON
09:22PM 28.6667 -80.8667 344° North 162 186 4,600  Level Orlando TRACON